Catàleg de serveis del Meteocat
Campanya meteocatpedra

Dades de l'estació automàtica el Masroig

?
?
Resum diari 21:00 TU
Dades diàries de l'estació meteorològica
Temperatura mitjana 26.7 °C
Temperatura màxima 34.7 °C 15:46 TU
Temperatura mínima 19.1 °C 5:18 TU
Humitat relativa mitjana 54%
Precipitació acumulada 0.0 mm
Ratxa màxima del vent (2 m) 20.5 km/h - 189º 16:51 TU

El tram horari està expressat en Temps Universal (TU). Cal sumar una hora en horari d'hivern i dues en horari d'estiu per passar a l'hora oficial.

el Masroig

Metadades estació meteorol´gica
Municipi El Masroig
Comarca Priorat
Altitud 141 m
Data alta 20.06.2000
Estat actual Operativa
Dades de període
Període
TU
TM
°C
TX
°C
TN
°C
HRM
%
PPT
mm
VVM (2 m)
km/h
DVM (2 m)
graus
VVX (2 m)
km/h
00:00 - 00:30 21.6 21.9 21.4 81 0.0 1.4 120 3.6
00:30 - 01:00 21.3 21.4 21.1 82 0.0 1.8 123 3.6
01:00 - 01:30 20.9 21.1 20.8 82 0.0 2.5 110 4.3
01:30 - 02:00 20.5 20.8 20.2 84 0.0 1.4 121 3.6
02:00 - 02:30 21.3 21.7 20.3 74 0.0 3.6 278 11.9
02:30 - 03:00 21.7 21.9 21.6 66 0.0 4.0 287 10.4
03:00 - 03:30 21.5 21.6 21.3 66 0.0 3.2 305 9.7
03:30 - 04:00 21.4 21.6 21.3 65 0.0 4.0 307 11.5
04:00 - 04:30 21.0 21.4 20.6 66 0.0 1.8 320 9.0
04:30 - 05:00 19.9 20.6 19.6 71 0.0 0.0 75 1.8
05:00 - 05:30 19.4 20.0 19.1 75 0.0 1.1 126 3.2
05:30 - 06:00 20.2 21.2 19.4 73 0.0 1.1 132 3.2
06:00 - 06:30 22.1 22.7 21.2 65 0.0 0.7 75 3.2
06:30 - 07:00 22.6 23.0 22.5 61 0.0 3.2 289 8.3
07:00 - 07:30 23.4 23.8 23.1 59 0.0 3.2 316 10.4
07:30 - 08:00 24.3 24.9 23.8 56 0.0 4.3 302 11.9
08:00 - 08:30 24.9 25.2 24.5 53 0.0 4.7 307 14.8
08:30 - 09:00 25.6 26.5 25.1 50 0.0 5.4 294 13.3
09:00 - 09:30 26.9 27.2 26.5 46 0.0 5.4 299 16.9
09:30 - 10:00 27.4 28.5 26.5 44 0.0 5.0 285 16.2
10:00 - 10:30 28.4 29.0 28.0 41 0.0 6.1 302 14.0
10:30 - 11:00 28.9 29.4 28.4 40 0.0 5.8 302 16.2
11:00 - 11:30 29.9 30.9 29.2 38 0.0 5.0 280 18.4
11:30 - 12:00 30.6 31.1 29.9 37 0.0 5.4 292 16.2
12:00 - 12:30 31.5 32.0 31.1 35 0.0 6.8 297 16.9
12:30 - 13:00 31.7 32.1 31.4 34 0.0 6.1 301 17.6
13:00 - 13:30 32.3 32.8 31.9 33 0.0 5.8 265 19.1
13:30 - 14:00 32.8 33.4 32.2 32 0.0 5.4 261 14.8
14:00 - 14:30 33.4 33.8 32.8 32 0.0 4.3 249 13.7
14:30 - 15:00 33.7 34.3 33.1 31 0.0 5.0 306 14.0
15:00 - 15:30 33.7 34.6 32.7 30 0.0 4.0 299 13.0
15:30 - 16:00 34.3 34.7 34.0 30 0.0 5.0 269 13.3
16:00 - 16:30 33.2 34.2 32.0 36 0.0 7.2 233 19.1
16:30 - 17:00 32.5 33.1 31.8 39 0.0 6.5 221 20.5
17:00 - 17:30 31.6 31.9 31.3 43 0.0 6.1 212 17.6
17:30 - 18:00 30.9 31.2 30.2 46 0.0 5.8 194 14.8
18:00 - 18:30 29.6 30.2 28.9 51 0.0 6.8 172 16.6
18:30 - 19:00 28.7 28.9 28.3 55 0.0 5.8 163 13.0
19:00 - 19:30 27.9 28.3 27.3 57 0.0 4.7 136 10.4
19:30 - 20:00 26.9 27.3 26.3 59 0.0 2.9 139 6.1
20:00 - 20:30 25.9 26.2 25.5 64 0.0 3.2 108 6.1
20:30 - 21:00 25.2 25.5 24.8 70 0.0 3.2 102 8.3
21:00 - 21:30 24.7 24.9 24.4 73 0.0 1.8 99 5.4

Les dades en taronja només han passat un control de qualitat automàtic. Resta pendent la seva validació definitiva.